createdAt,value
2018-12-16T00:01:15.285Z,67.82
2018-12-16T00:03:42.930Z,67.61
2018-12-16T00:06:10.356Z,67.62
2018-12-16T00:08:37.933Z,67.52
2018-12-16T00:11:05.408Z,67.29
2018-12-16T00:13:32.863Z,67.56
2018-12-16T00:16:00.308Z,67.22
2018-12-16T00:18:27.766Z,66.92
2018-12-16T00:20:55.216Z,67.22
2018-12-16T00:23:22.685Z,66.50
2018-12-16T00:25:50.098Z,66.75
2018-12-16T00:28:17.533Z,66.81
2018-12-16T00:30:45.046Z,66.70
2018-12-16T00:33:12.479Z,66.34
2018-12-16T00:35:40.075Z,66.56
2018-12-16T00:38:07.509Z,66.82
2018-12-16T00:40:34.993Z,66.61
2018-12-16T00:43:02.410Z,66.55
2018-12-16T00:45:29.849Z,66.45
2018-12-16T00:47:57.333Z,66.34
2018-12-16T00:50:24.898Z,66.13
2018-12-16T00:52:52.309Z,65.97
2018-12-16T00:55:19.739Z,66.51
2018-12-16T00:57:47.190Z,66.63
2018-12-16T01:00:14.714Z,66.15
2018-12-16T01:02:43.125Z,66.31
2018-12-16T01:05:10.844Z,66.45
2018-12-16T01:07:38.315Z,66.83
2018-12-16T01:10:07.534Z,66.62
2018-12-16T01:12:35.007Z,66.85
2018-12-16T01:15:02.544Z,66.95
2018-12-16T01:17:29.980Z,67.11
2018-12-16T01:19:57.581Z,66.90
2018-12-16T01:22:25.025Z,66.93
2018-12-16T01:24:52.503Z,67.23
2018-12-16T01:27:20.051Z,67.06
2018-12-16T01:29:47.473Z,66.82
2018-12-16T01:32:14.897Z,67.00
2018-12-16T01:34:42.327Z,66.68
2018-12-16T01:37:09.853Z,66.91
2018-12-16T01:39:37.329Z,66.72
2018-12-16T01:42:04.799Z,66.62
2018-12-16T01:44:32.221Z,66.30
2018-12-16T01:46:59.697Z,66.34
2018-12-16T01:49:27.165Z,66.08
2018-12-16T01:51:54.579Z,66.16
2018-12-16T01:54:22.083Z,66.01
2018-12-16T01:56:49.525Z,65.91
2018-12-16T01:59:16.977Z,66.04
2018-12-16T02:01:46.423Z,65.95
2018-12-16T02:04:13.851Z,65.99
2018-12-16T02:06:41.317Z,65.82
2018-12-16T02:09:10.739Z,65.68
2018-12-16T02:11:38.156Z,65.52
2018-12-16T02:14:05.625Z,65.88
2018-12-16T02:16:33.079Z,65.55
2018-12-16T02:19:00.509Z,65.11
2018-12-16T02:21:27.914Z,64.87
2018-12-16T02:23:55.415Z,64.95
2018-12-16T02:26:22.911Z,65.01
2018-12-16T02:28:50.362Z,64.95
2018-12-16T02:31:17.783Z,64.86
2018-12-16T02:33:45.214Z,64.59
2018-12-16T02:36:12.744Z,64.60
2018-12-16T02:38:40.193Z,64.81
2018-12-16T02:41:07.718Z,64.54
2018-12-16T02:43:35.230Z,64.08
2018-12-16T02:46:02.760Z,64.27
2018-12-16T02:48:30.244Z,64.46
2018-12-16T02:50:57.648Z,64.42
2018-12-16T02:53:25.142Z,64.47
2018-12-16T02:55:52.606Z,64.20
2018-12-16T02:58:20.055Z,63.65
2018-12-16T03:00:47.481Z,64.16
2018-12-16T03:03:14.952Z,63.71
2018-12-16T03:05:42.439Z,63.87
2018-12-16T03:08:09.889Z,63.89
2018-12-16T03:10:37.352Z,63.79
2018-12-16T03:13:04.798Z,63.59
2018-12-16T03:15:32.394Z,63.29
2018-12-16T03:17:59.820Z,63.63
2018-12-16T03:20:27.262Z,62.99
2018-12-16T03:22:54.738Z,62.92
2018-12-16T03:25:22.149Z,62.81
2018-12-16T03:27:49.604Z,62.63
2018-12-16T03:30:17.106Z,62.42
2018-12-16T03:32:44.548Z,63.05
2018-12-16T03:35:11.979Z,63.08
2018-12-16T03:37:39.505Z,62.79
2018-12-16T03:40:07.445Z,62.56
2018-12-16T03:42:34.887Z,62.53
2018-12-16T03:45:02.371Z,62.26
2018-12-16T03:47:29.802Z,62.48
2018-12-16T03:49:57.569Z,62.10
2018-12-16T03:52:25.025Z,62.42
2018-12-16T03:54:52.487Z,62.02
2018-12-16T03:57:19.928Z,62.03
2018-12-16T03:59:47.338Z,61.96
2018-12-16T04:02:14.786Z,62.19
2018-12-16T04:04:42.195Z,62.10
2018-12-16T04:07:09.638Z,62.36
2018-12-16T04:09:37.145Z,62.34
2018-12-16T04:12:04.686Z,62.21
2018-12-16T04:14:32.152Z,62.48
2018-12-16T04:16:59.604Z,62.50
2018-12-16T04:19:27.082Z,62.58
2018-12-16T04:21:54.519Z,62.62
2018-12-16T04:24:22.268Z,62.85
2018-12-16T04:26:49.727Z,62.74
2018-12-16T04:29:17.162Z,62.75
2018-12-16T04:31:44.671Z,62.97
2018-12-16T04:34:12.210Z,62.89
2018-12-16T04:36:39.672Z,62.59
2018-12-16T04:39:07.131Z,62.65
2018-12-16T04:41:34.693Z,62.70
2018-12-16T04:44:02.117Z,63.18
2018-12-16T04:46:29.612Z,63.71
2018-12-16T04:48:57.052Z,64.68
2018-12-16T04:51:24.634Z,64.28
2018-12-16T04:53:52.043Z,64.85
2018-12-16T04:56:19.713Z,64.95
2018-12-16T04:58:47.180Z,65.10
2018-12-16T05:01:14.594Z,65.58
2018-12-16T05:03:42.101Z,65.90
2018-12-16T05:06:09.563Z,66.05
2018-12-16T05:08:37.010Z,65.90
2018-12-16T05:11:04.497Z,65.71
2018-12-16T05:13:32.020Z,66.82
2018-12-16T05:15:59.477Z,67.00
2018-12-16T05:18:27.052Z,68.26
2018-12-16T05:20:54.523Z,69.14
2018-12-16T05:23:21.963Z,69.77
2018-12-16T05:25:49.411Z,70.48
2018-12-16T05:28:16.840Z,71.53
2018-12-16T05:30:44.325Z,72.17
2018-12-16T05:33:11.760Z,72.97
2018-12-16T05:35:39.221Z,73.03
2018-12-16T05:38:06.693Z,73.94
2018-12-16T05:40:34.110Z,74.33
2018-12-16T05:43:01.537Z,74.69
2018-12-16T05:45:28.960Z,75.49
2018-12-16T05:47:56.738Z,75.25
2018-12-16T05:50:24.194Z,76.21
2018-12-16T05:52:51.660Z,76.15
2018-12-16T05:55:19.159Z,77.04
2018-12-16T05:57:46.674Z,77.48
2018-12-16T06:00:14.107Z,78.04
2018-12-16T06:02:41.520Z,78.20
2018-12-16T06:07:42.757Z,79.17
2018-12-16T06:10:10.311Z,79.17
2018-12-16T06:12:37.749Z,79.28
2018-12-16T06:15:05.331Z,79.79
2018-12-16T06:17:32.752Z,80.06
2018-12-16T06:20:00.233Z,80.06
2018-12-16T06:22:27.686Z,80.52
2018-12-16T06:24:55.144Z,80.38
2018-12-16T06:27:22.566Z,80.56
2018-12-16T06:29:50.359Z,80.39
2018-12-16T06:32:17.827Z,80.71
2018-12-16T06:34:45.287Z,80.50
2018-12-16T06:37:12.739Z,81.13
2018-12-16T06:39:40.164Z,81.15
2018-12-16T06:42:07.589Z,81.10
2018-12-16T06:44:35.127Z,81.30
2018-12-16T06:47:02.871Z,81.44
2018-12-16T06:49:30.635Z,81.58
2018-12-16T06:51:58.105Z,81.55
2018-12-16T06:54:25.537Z,81.92
2018-12-16T06:56:52.952Z,82.35
2018-12-16T06:59:20.390Z,82.13
2018-12-16T07:01:47.825Z,81.94
2018-12-16T07:04:15.279Z,82.04
2018-12-16T07:06:42.706Z,82.36
2018-12-16T07:09:10.116Z,82.74
2018-12-16T07:11:37.568Z,82.45
2018-12-16T07:14:05.005Z,82.82
2018-12-16T07:16:32.463Z,82.96
2018-12-16T07:18:59.923Z,83.55
2018-12-16T07:21:27.344Z,83.28
2018-12-16T07:23:54.941Z,82.86
2018-12-16T07:26:22.368Z,83.31
2018-12-16T07:28:49.828Z,83.33
2018-12-16T07:31:17.403Z,83.31
2018-12-16T07:33:44.939Z,83.19
2018-12-16T07:36:12.427Z,83.07
2018-12-16T07:38:39.976Z,83.35
2018-12-16T07:41:07.448Z,83.43
2018-12-16T07:43:34.929Z,83.79
2018-12-16T07:46:02.468Z,83.15
2018-12-16T07:48:30.134Z,83.17
2018-12-16T07:50:57.581Z,83.21
2018-12-16T07:53:25.041Z,83.51
2018-12-16T07:55:52.497Z,83.42
2018-12-16T07:58:20.013Z,83.40
2018-12-16T08:00:47.503Z,82.89
2018-12-16T08:03:14.977Z,82.88
2018-12-16T08:05:42.422Z,82.92
2018-12-16T08:08:09.837Z,82.92
2018-12-16T08:10:37.329Z,83.15
2018-12-16T08:13:04.759Z,83.19
2018-12-16T08:15:33.280Z,83.06
2018-12-16T08:18:00.746Z,83.06
2018-12-16T08:20:28.192Z,83.18
2018-12-16T08:22:55.623Z,83.27
2018-12-16T08:25:23.205Z,82.98
2018-12-16T08:27:50.654Z,83.27
2018-12-16T08:30:18.083Z,83.10
2018-12-16T08:32:45.510Z,82.62
2018-12-16T08:35:12.941Z,82.66
2018-12-16T08:37:40.394Z,82.25
2018-12-16T08:40:08.062Z,82.60
2018-12-16T08:42:35.489Z,82.53
2018-12-16T08:45:04.478Z,82.38
2018-12-16T08:47:33.269Z,81.90
2018-12-16T08:50:00.911Z,81.85
2018-12-16T08:52:28.347Z,81.24
2018-12-16T08:54:55.758Z,81.13
2018-12-16T08:57:23.260Z,81.45
2018-12-16T08:59:50.761Z,81.03
2018-12-16T09:02:18.240Z,80.67
2018-12-16T09:04:45.650Z,80.93
2018-12-16T09:07:13.456Z,80.77
2018-12-16T09:09:41.032Z,80.71
2018-12-16T09:12:08.461Z,80.65
2018-12-16T09:14:35.902Z,80.51
2018-12-16T09:17:03.373Z,79.94
2018-12-16T09:19:30.852Z,80.10
2018-12-16T09:21:58.286Z,80.02
2018-12-16T09:24:25.706Z,79.86
2018-12-16T09:26:53.150Z,80.40
2018-12-16T09:29:20.577Z,80.50
2018-12-16T09:31:48.023Z,80.41
2018-12-16T09:34:15.441Z,79.82
2018-12-16T09:36:43.039Z,80.27
2018-12-16T09:39:10.461Z,79.72
2018-12-16T09:41:37.963Z,79.81
2018-12-16T09:44:05.490Z,79.66
2018-12-16T09:46:32.976Z,80.07
2018-12-16T09:49:00.471Z,80.15
2018-12-16T09:51:28.000Z,79.84
2018-12-16T09:53:55.414Z,79.83
2018-12-16T09:56:22.841Z,79.99
2018-12-16T09:58:50.346Z,79.89
2018-12-16T10:01:17.818Z,80.53
2018-12-16T10:03:45.253Z,80.08
2018-12-16T10:06:12.703Z,80.10
2018-12-16T10:08:40.131Z,80.08
2018-12-16T10:11:07.701Z,80.33
2018-12-16T10:13:35.298Z,80.41
2018-12-16T10:16:02.740Z,80.08
2018-12-16T10:18:30.324Z,79.96
2018-12-16T10:20:57.784Z,79.77
2018-12-16T10:23:25.203Z,80.13
2018-12-16T10:25:52.677Z,79.93
2018-12-16T10:28:20.145Z,79.92
2018-12-16T10:30:47.699Z,79.35
2018-12-16T10:33:15.153Z,79.55
2018-12-16T10:35:42.594Z,78.88
2018-12-16T10:38:10.038Z,79.08
2018-12-16T10:40:37.548Z,78.74
2018-12-16T10:43:05.002Z,79.06
2018-12-16T10:45:32.410Z,79.04
2018-12-16T10:47:59.885Z,79.34
2018-12-16T10:50:27.341Z,79.24
2018-12-16T10:52:54.750Z,79.47
2018-12-16T10:55:22.198Z,79.29
2018-12-16T10:57:49.626Z,79.72
2018-12-16T11:00:22.704Z,80.02
2018-12-16T11:02:50.146Z,79.94
2018-12-16T11:05:17.718Z,80.40
2018-12-16T11:07:45.185Z,79.99
2018-12-16T11:10:12.756Z,79.61
2018-12-16T11:12:40.432Z,80.10
2018-12-16T11:15:07.876Z,80.41
2018-12-16T11:17:35.318Z,80.04
2018-12-16T11:20:03.299Z,80.22
2018-12-16T11:22:30.749Z,80.10
2018-12-16T11:25:05.403Z,80.48
2018-12-16T11:27:27.653Z,80.39
2018-12-16T11:29:55.187Z,80.72
2018-12-16T11:32:22.601Z,80.90
2018-12-16T11:34:50.081Z,80.92
2018-12-16T11:37:17.567Z,80.99
2018-12-16T11:39:45.108Z,81.29
2018-12-16T11:42:12.557Z,81.12
2018-12-16T11:44:40.028Z,81.58
2018-12-16T11:47:07.486Z,81.56
2018-12-16T11:49:34.951Z,82.03
2018-12-16T11:52:02.417Z,82.05
2018-12-16T11:54:29.847Z,81.87
2018-12-16T11:56:57.284Z,82.27
2018-12-16T11:59:24.697Z,81.67
2018-12-16T12:01:52.140Z,82.04
2018-12-16T12:04:19.669Z,82.38
2018-12-16T12:06:47.226Z,81.98
2018-12-16T12:09:14.681Z,82.46
2018-12-16T12:11:42.131Z,82.17
2018-12-16T12:14:09.557Z,82.03
2018-12-16T12:16:36.965Z,82.81
2018-12-16T12:19:04.381Z,82.13
2018-12-16T12:21:31.877Z,82.52
2018-12-16T12:23:59.332Z,82.61
2018-12-16T12:26:26.791Z,82.70
2018-12-16T12:28:54.243Z,83.17
2018-12-16T12:31:21.741Z,83.24
2018-12-16T12:33:49.169Z,82.97
2018-12-16T12:36:16.595Z,82.94
2018-12-16T12:38:44.061Z,82.95
2018-12-16T12:41:11.501Z,82.87
2018-12-16T12:43:38.957Z,83.41
2018-12-16T12:46:06.434Z,82.80
2018-12-16T12:48:33.919Z,83.16
2018-12-16T12:51:01.362Z,83.26
2018-12-16T12:53:28.799Z,83.23
2018-12-16T12:55:56.281Z,82.94
2018-12-16T12:58:23.693Z,82.84
2018-12-16T13:00:51.294Z,83.00
2018-12-16T13:03:18.724Z,82.66
2018-12-16T13:05:46.152Z,82.99
2018-12-16T13:08:13.660Z,82.88
2018-12-16T13:10:41.079Z,82.60
2018-12-16T13:13:08.505Z,83.04
2018-12-16T13:15:35.940Z,83.25
2018-12-16T13:18:03.385Z,83.52
2018-12-16T13:20:30.945Z,83.10
2018-12-16T13:22:58.373Z,83.32
2018-12-16T13:25:37.733Z,83.36
2018-12-16T13:28:05.163Z,83.31
2018-12-16T13:30:32.588Z,83.75
2018-12-16T13:33:00.018Z,83.29
2018-12-16T13:35:27.445Z,83.34
2018-12-16T13:37:54.881Z,83.64
2018-12-16T13:40:22.293Z,83.52
2018-12-16T13:42:49.729Z,83.93
2018-12-16T13:45:17.177Z,83.77
2018-12-16T13:47:44.637Z,84.24
2018-12-16T13:50:12.116Z,84.45
2018-12-16T13:52:39.583Z,85.14
2018-12-16T13:55:07.137Z,84.96
2018-12-16T13:57:35.601Z,84.65
2018-12-16T14:00:03.788Z,84.83
2018-12-16T14:02:31.219Z,85.70
2018-12-16T14:04:58.685Z,85.74
2018-12-16T14:07:26.141Z,85.86
2018-12-16T14:09:53.607Z,86.34
2018-12-16T14:12:21.063Z,86.46
2018-12-16T14:14:48.481Z,86.62
2018-12-16T14:17:15.969Z,86.77
2018-12-16T14:19:43.421Z,87.02
2018-12-16T14:22:10.833Z,87.05
2018-12-16T14:24:38.350Z,87.25
2018-12-16T14:27:05.910Z,87.30
2018-12-16T14:29:33.338Z,87.58
2018-12-16T14:32:00.833Z,88.14
2018-12-16T14:34:28.292Z,87.94
2018-12-16T14:36:55.752Z,88.27
2018-12-16T14:39:23.184Z,87.96
2018-12-16T14:41:50.598Z,88.03
2018-12-16T14:44:18.101Z,88.17
2018-12-16T14:46:45.555Z,88.30
2018-12-16T14:49:12.976Z,88.70
2018-12-16T14:51:40.467Z,88.53
2018-12-16T14:54:07.922Z,88.54
2018-12-16T14:56:35.372Z,89.01
2018-12-16T14:59:02.837Z,88.89
2018-12-16T15:01:30.277Z,88.62
2018-12-16T15:03:57.698Z,88.86
2018-12-16T15:06:25.111Z,89.20
2018-12-16T15:08:52.537Z,89.44
2018-12-16T15:11:20.036Z,89.60
2018-12-16T15:13:47.461Z,89.62
2018-12-16T15:16:14.941Z,89.38
2018-12-16T15:18:42.420Z,89.84
2018-12-16T15:21:09.859Z,89.94
2018-12-16T15:23:37.279Z,89.60
2018-12-16T15:26:04.780Z,89.97
2018-12-16T15:28:32.182Z,90.32
2018-12-16T15:30:59.625Z,89.85
2018-12-16T15:33:27.068Z,89.97
2018-12-16T15:35:54.509Z,90.26
2018-12-16T15:38:21.951Z,90.41
2018-12-16T15:40:49.411Z,90.44
2018-12-16T15:43:16.884Z,90.47
2018-12-16T15:45:44.306Z,90.44
2018-12-16T15:48:11.779Z,90.01
2018-12-16T15:50:39.202Z,90.46
2018-12-16T15:53:06.700Z,90.39
2018-12-16T15:55:34.123Z,90.05
2018-12-16T15:58:01.541Z,90.09
2018-12-16T16:00:29.070Z,90.42
2018-12-16T16:02:56.513Z,90.46
2018-12-16T16:05:24.204Z,89.94
2018-12-16T16:07:51.730Z,90.42
2018-12-16T16:10:19.219Z,90.61
2018-12-16T16:12:46.663Z,90.42
2018-12-16T16:15:14.139Z,90.47
2018-12-16T16:17:41.618Z,90.82
2018-12-16T16:20:09.105Z,90.61
2018-12-16T16:22:36.663Z,90.26
2018-12-16T16:25:04.399Z,90.50
2018-12-16T16:27:31.836Z,90.73
2018-12-16T16:29:59.262Z,90.38
2018-12-16T16:32:26.698Z,90.25
2018-12-16T16:34:54.194Z,90.91
2018-12-16T16:37:21.643Z,90.48
2018-12-16T16:39:49.094Z,90.56
2018-12-16T16:42:16.535Z,90.55
2018-12-16T16:46:13.371Z,90.54
2018-12-16T16:48:40.863Z,90.77
2018-12-16T16:51:08.354Z,90.51
2018-12-16T16:53:36.083Z,90.35
2018-12-16T16:56:03.557Z,90.64
2018-12-16T16:58:30.984Z,90.57
2018-12-16T17:00:58.509Z,90.27
2018-12-16T17:03:25.941Z,90.58
2018-12-16T17:05:53.798Z,90.16
2018-12-16T17:08:21.274Z,90.42
2018-12-16T17:10:48.687Z,90.62
2018-12-16T17:13:16.127Z,90.47
2018-12-16T17:15:43.709Z,90.49
2018-12-16T17:18:11.171Z,90.18
2018-12-16T17:20:38.626Z,90.35
2018-12-16T17:23:06.089Z,90.41
2018-12-16T17:25:33.507Z,90.29
2018-12-16T17:28:00.933Z,90.00
2018-12-16T17:30:28.358Z,90.23
2018-12-16T17:32:55.805Z,89.94
2018-12-16T17:35:23.241Z,89.88
2018-12-16T17:37:50.713Z,90.38
2018-12-16T17:40:18.489Z,90.34
2018-12-16T17:42:45.951Z,90.61
2018-12-16T17:45:13.496Z,90.29
2018-12-16T17:47:40.945Z,90.13
2018-12-16T17:50:08.481Z,90.08
2018-12-16T17:52:35.920Z,90.21
2018-12-16T17:55:03.752Z,90.18
2018-12-16T17:57:31.188Z,90.49
2018-12-16T17:59:58.641Z,90.20
2018-12-16T18:02:26.057Z,89.71
2018-12-16T18:04:53.587Z,90.17
2018-12-16T18:07:21.006Z,89.85
2018-12-16T18:09:48.437Z,89.68
2018-12-16T18:12:15.971Z,89.49
2018-12-16T18:14:43.688Z,90.04
2018-12-16T18:17:11.233Z,89.89
2018-12-16T18:19:38.726Z,89.67
2018-12-16T18:22:06.154Z,89.41
2018-12-16T18:24:33.633Z,89.52
2018-12-16T18:27:01.095Z,90.01
2018-12-16T18:29:28.523Z,89.73
2018-12-16T18:31:56.011Z,89.26
2018-12-16T18:34:23.433Z,89.70
2018-12-16T18:36:51.009Z,89.38
2018-12-16T18:39:18.434Z,89.49
2018-12-16T18:41:46.109Z,89.80
2018-12-16T18:44:13.586Z,90.00
2018-12-16T18:46:41.028Z,89.63
2018-12-16T18:49:08.496Z,89.75
2018-12-16T18:51:36.260Z,90.00
2018-12-16T18:54:03.748Z,90.02
2018-12-16T18:56:31.190Z,89.78
2018-12-16T18:58:58.645Z,89.68
2018-12-16T19:01:26.067Z,89.97
2018-12-16T19:03:53.500Z,89.76
2018-12-16T19:06:20.988Z,90.14
2018-12-16T19:08:48.472Z,89.94
2018-12-16T19:11:15.910Z,89.82
2018-12-16T19:13:43.395Z,89.47
2018-12-16T19:16:10.833Z,89.44
2018-12-16T19:18:38.606Z,89.73
2018-12-16T19:21:06.095Z,89.31
2018-12-16T19:23:33.626Z,89.92
2018-12-16T19:26:01.095Z,89.76
2018-12-16T19:28:28.543Z,89.14
2018-12-16T19:30:56.120Z,89.53
2018-12-16T19:33:23.655Z,88.94
2018-12-16T19:35:51.062Z,89.30
2018-12-16T19:38:18.584Z,89.47
2018-12-16T19:40:46.041Z,89.12
2018-12-16T19:43:13.457Z,89.30
2018-12-16T19:45:40.946Z,89.22
2018-12-16T19:48:08.407Z,88.92
2018-12-16T19:50:35.857Z,89.25
2018-12-16T19:53:03.285Z,88.88
2018-12-16T19:55:30.743Z,88.67
2018-12-16T19:57:58.222Z,88.83
2018-12-16T20:00:25.685Z,89.35
2018-12-16T20:02:53.127Z,89.47
2018-12-16T20:05:20.711Z,89.68
2018-12-16T20:07:48.608Z,89.51
2018-12-16T20:10:16.119Z,89.63
2018-12-16T20:12:43.563Z,89.37
2018-12-16T20:15:11.040Z,89.23
2018-12-16T20:17:38.981Z,89.43
2018-12-16T20:20:06.971Z,89.22
2018-12-16T20:22:34.412Z,89.36
2018-12-16T20:25:01.833Z,89.63
2018-12-16T20:27:29.252Z,89.36
2018-12-16T20:29:56.688Z,89.29
2018-12-16T20:32:24.119Z,89.23
2018-12-16T20:34:51.537Z,89.77
2018-12-16T20:37:19.025Z,89.81
2018-12-16T20:39:46.445Z,90.01
2018-12-16T20:42:13.939Z,89.46
2018-12-16T20:44:41.451Z,89.78
2018-12-16T20:47:08.907Z,89.58
2018-12-16T20:49:36.350Z,89.46
2018-12-16T20:52:03.821Z,89.26
2018-12-16T20:54:31.277Z,89.25
2018-12-16T20:56:58.739Z,88.97
2018-12-16T20:59:26.195Z,89.33
2018-12-16T21:01:53.623Z,89.20
2018-12-16T21:04:21.033Z,89.67
2018-12-16T21:06:48.546Z,89.45
2018-12-16T21:09:16.027Z,89.18
2018-12-16T21:12:01.338Z,89.01
2018-12-16T21:14:34.488Z,89.22
2018-12-16T21:17:07.719Z,89.23
2018-12-16T21:19:35.237Z,89.30
2018-12-16T21:22:02.692Z,89.49
2018-12-16T21:24:30.159Z,89.10
2018-12-16T21:26:57.631Z,89.29
2018-12-16T21:29:25.164Z,89.09
2018-12-16T21:31:52.587Z,89.33
2018-12-16T21:34:20.075Z,89.39
2018-12-16T21:36:47.497Z,89.05
2018-12-16T21:39:14.907Z,88.75
2018-12-16T21:41:42.347Z,88.56
2018-12-16T21:44:09.815Z,88.56
2018-12-16T21:46:37.251Z,88.53
2018-12-16T21:49:04.701Z,88.84
2018-12-16T21:51:32.975Z,88.25
2018-12-16T21:54:00.451Z,88.47
2018-12-16T21:56:27.917Z,88.33
2018-12-16T21:58:55.355Z,88.69
2018-12-16T22:01:22.808Z,88.38
2018-12-16T22:03:50.275Z,88.14
2018-12-16T22:06:17.697Z,87.99
2018-12-16T22:08:45.199Z,88.40
2018-12-16T22:11:13.261Z,88.14
2018-12-16T22:13:40.823Z,88.39
2018-12-16T22:16:08.368Z,87.89
2018-12-16T22:18:35.800Z,88.32
2018-12-16T22:21:03.281Z,88.27
2018-12-16T22:23:30.760Z,88.15
2018-12-16T22:25:58.189Z,88.57
2018-12-16T22:28:25.609Z,88.39
2018-12-16T22:30:53.124Z,87.82
2018-12-16T22:33:20.580Z,88.08
2018-12-16T22:35:48.051Z,88.29
2018-12-16T22:38:15.474Z,88.18
2018-12-16T22:40:42.888Z,87.87
2018-12-16T22:43:10.410Z,88.53
2018-12-16T22:45:37.834Z,88.43
2018-12-16T22:48:05.322Z,88.13
2018-12-16T22:50:32.807Z,88.14
2018-12-16T22:53:00.231Z,88.38
2018-12-16T22:55:27.665Z,88.76
2018-12-16T22:57:55.105Z,88.55
2018-12-16T23:00:22.715Z,87.87
2018-12-16T23:02:50.221Z,88.71
2018-12-16T23:05:17.688Z,88.55
2018-12-16T23:07:45.159Z,87.93
2018-12-16T23:10:12.640Z,88.33
2018-12-16T23:12:40.162Z,88.24
2018-12-16T23:15:07.771Z,88.53
2018-12-16T23:17:35.268Z,88.07
2018-12-16T23:20:08.373Z,88.18
2018-12-16T23:22:35.867Z,88.57
2018-12-16T23:25:03.390Z,88.40
2018-12-16T23:27:30.865Z,88.20
2018-12-16T23:29:58.319Z,88.32
2018-12-16T23:32:25.781Z,88.66
2018-12-16T23:34:53.251Z,88.20
2018-12-16T23:37:20.709Z,88.06
2018-12-16T23:39:48.121Z,88.72
2018-12-16T23:42:15.625Z,88.73
2018-12-16T23:44:43.091Z,88.51
2018-12-16T23:47:10.544Z,88.53
2018-12-16T23:49:38.001Z,88.57
2018-12-16T23:52:05.461Z,88.41
2018-12-16T23:54:32.907Z,88.54
2018-12-16T23:57:00.398Z,88.55
2018-12-16T23:59:27.892Z,88.77
